createdAt,value
2018-12-03T00:01:26.447Z,80.57
2018-12-03T00:04:15.825Z,80.51
2018-12-03T00:07:48.095Z,80.22
2018-12-03T00:10:18.080Z,80.01
2018-12-03T00:12:48.072Z,80.26
2018-12-03T00:15:17.993Z,80.24
2018-12-03T00:17:47.611Z,79.86
2018-12-03T00:20:18.478Z,80.29
2018-12-03T00:22:48.945Z,80.45
2018-12-03T00:25:20.285Z,80.44
2018-12-03T00:27:54.319Z,80.39
2018-12-03T00:30:24.475Z,80.31
2018-12-03T00:32:55.082Z,80.75
2018-12-03T00:35:24.679Z,80.84
2018-12-03T00:37:56.070Z,80.75
2018-12-03T00:40:28.008Z,80.61
2018-12-03T00:42:58.536Z,80.56
2018-12-03T00:45:28.158Z,80.50
2018-12-03T00:48:00.011Z,80.21
2018-12-03T00:50:30.155Z,80.58
2018-12-03T00:53:00.955Z,80.76
2018-12-03T00:55:32.248Z,79.84
2018-12-03T00:58:02.388Z,80.00
2018-12-03T01:00:32.394Z,80.14
2018-12-03T01:03:02.504Z,79.70
2018-12-03T01:05:32.479Z,79.69
2018-12-03T01:08:02.393Z,79.45
2018-12-03T01:10:32.192Z,79.46
2018-12-03T01:13:02.407Z,79.21
2018-12-03T01:15:32.728Z,78.81
2018-12-03T01:18:03.634Z,78.42
2018-12-03T01:20:33.814Z,78.84
2018-12-03T01:23:04.293Z,77.81
2018-12-03T01:25:34.220Z,77.98
2018-12-03T01:28:03.931Z,77.85
2018-12-03T01:30:34.265Z,77.55
2018-12-03T01:33:04.208Z,76.75
2018-12-03T01:35:34.270Z,76.48
2018-12-03T01:38:03.941Z,76.37
2018-12-03T01:40:33.894Z,76.10
2018-12-03T01:43:03.811Z,75.59
2018-12-03T01:45:34.423Z,76.35
2018-12-03T01:48:05.340Z,75.60
2018-12-03T01:50:36.219Z,75.76
2018-12-03T01:53:07.816Z,76.06
2018-12-03T01:55:39.995Z,76.20
2018-12-03T01:58:14.112Z,76.09
2018-12-03T02:00:44.079Z,76.38
2018-12-03T02:03:13.866Z,76.17
2018-12-03T02:05:43.877Z,76.33
2018-12-03T02:08:13.890Z,76.47
2018-12-03T02:10:44.068Z,76.55
2018-12-03T02:13:14.335Z,76.63
2018-12-03T02:15:44.265Z,76.65
2018-12-03T02:18:14.030Z,76.58
2018-12-03T02:20:44.083Z,76.37
2018-12-03T02:23:13.899Z,76.36
2018-12-03T02:25:44.577Z,76.61
2018-12-03T02:28:14.589Z,76.90
2018-12-03T02:30:44.771Z,77.06
2018-12-03T02:33:16.041Z,77.77
2018-12-03T02:35:45.871Z,78.09
2018-12-03T02:38:16.455Z,78.57
2018-12-03T02:40:46.400Z,78.13
2018-12-03T02:43:17.189Z,79.06
2018-12-03T02:45:47.155Z,79.28
2018-12-03T02:48:16.972Z,79.43
2018-12-03T02:50:46.672Z,79.90
2018-12-03T02:53:16.537Z,79.89
2018-12-03T02:55:46.613Z,80.51
2018-12-03T02:58:17.015Z,81.45
2018-12-03T03:00:47.363Z,81.38
2018-12-03T03:03:17.338Z,81.11
2018-12-03T03:05:47.267Z,81.13
2018-12-03T03:08:18.151Z,81.71
2018-12-03T03:10:48.152Z,81.16
2018-12-03T03:13:17.869Z,81.98
2018-12-03T03:15:47.480Z,81.65
2018-12-03T03:18:17.239Z,82.15
2018-12-03T03:20:47.178Z,81.61
2018-12-03T03:23:16.938Z,82.30
2018-12-03T03:25:47.364Z,82.45
2018-12-03T03:28:17.597Z,82.30
2018-12-03T03:30:47.459Z,82.68
2018-12-03T03:33:17.294Z,81.97
2018-12-03T03:35:47.258Z,82.43
2018-12-03T03:38:18.433Z,82.38
2018-12-03T03:40:48.109Z,82.27
2018-12-03T03:43:19.247Z,81.87
2018-12-03T03:45:49.591Z,81.95
2018-12-03T03:48:19.531Z,81.94
2018-12-03T03:50:49.385Z,81.89
2018-12-03T03:53:19.491Z,81.49
2018-12-03T03:55:49.422Z,82.02
2018-12-03T03:58:20.552Z,81.96
2018-12-03T04:00:50.437Z,81.77
2018-12-03T04:03:20.707Z,82.11
2018-12-03T04:05:51.028Z,82.25
2018-12-03T04:08:20.953Z,81.95
2018-12-03T04:10:51.373Z,80.99
2018-12-03T04:13:22.240Z,81.08
2018-12-03T04:15:52.706Z,81.55
2018-12-03T04:18:23.650Z,81.45
2018-12-03T04:20:54.265Z,81.21
2018-12-03T04:23:25.276Z,81.19
2018-12-03T04:25:55.363Z,81.22
2018-12-03T04:28:25.416Z,80.91
2018-12-03T04:30:55.846Z,81.37
2018-12-03T04:33:27.071Z,80.67
2018-12-03T04:35:57.423Z,81.30
2018-12-03T04:38:28.274Z,80.85
2018-12-03T04:40:59.972Z,81.58
2018-12-03T04:43:30.713Z,81.44
2018-12-03T04:46:00.894Z,81.76
2018-12-03T04:48:31.243Z,81.67
2018-12-03T04:51:01.071Z,81.88
2018-12-03T04:53:30.708Z,81.51
2018-12-03T04:56:00.696Z,81.41
2018-12-03T04:58:31.051Z,81.17
2018-12-03T05:01:01.914Z,81.32
2018-12-03T05:03:33.740Z,80.94
2018-12-03T05:06:03.480Z,81.12
2018-12-03T05:08:34.126Z,80.56
2018-12-03T05:11:06.061Z,80.29
2018-12-03T05:13:39.119Z,80.42
2018-12-03T05:16:09.014Z,79.60
2018-12-03T05:18:38.996Z,79.63
2018-12-03T05:21:08.658Z,79.78
2018-12-03T05:23:39.150Z,79.34
2018-12-03T05:26:09.593Z,79.40
2018-12-03T05:28:39.788Z,79.01
2018-12-03T05:31:09.732Z,78.74
2018-12-03T05:33:40.018Z,79.11
2018-12-03T05:36:10.234Z,78.11
2018-12-03T05:38:40.039Z,78.36
2018-12-03T05:41:09.929Z,78.62
2018-12-03T05:43:40.432Z,78.77
2018-12-03T05:46:10.528Z,78.74
2018-12-03T05:48:40.708Z,78.80
2018-12-03T05:51:10.601Z,79.13
2018-12-03T05:53:40.439Z,79.40
2018-12-03T05:56:10.966Z,78.91
2018-12-03T05:58:40.875Z,79.06
2018-12-03T06:01:11.964Z,79.07
2018-12-03T06:03:42.307Z,78.46
2018-12-03T06:06:13.285Z,78.96
2018-12-03T06:08:44.009Z,78.90
2018-12-03T06:11:13.798Z,78.48
2018-12-03T06:13:43.326Z,78.63
2018-12-03T06:16:13.265Z,78.86
2018-12-03T06:18:43.107Z,78.27
2018-12-03T06:21:14.346Z,78.66
2018-12-03T06:23:49.604Z,77.65
2018-12-03T06:26:19.331Z,78.02
2018-12-03T06:28:49.230Z,78.27
2018-12-03T06:31:19.830Z,78.52
2018-12-03T06:33:49.847Z,78.39
2018-12-03T06:36:21.091Z,78.64
2018-12-03T06:38:56.148Z,78.70
2018-12-03T06:41:27.008Z,79.11
2018-12-03T06:43:57.107Z,79.81
2018-12-03T06:46:27.539Z,81.42
2018-12-03T06:48:58.482Z,83.10
2018-12-03T06:51:30.903Z,83.12
2018-12-03T06:54:01.226Z,83.28
2018-12-03T06:56:32.488Z,83.45
2018-12-03T06:59:02.704Z,83.51
2018-12-03T07:01:33.377Z,84.18
2018-12-03T07:04:04.420Z,84.16
2018-12-03T07:06:35.312Z,83.42
2018-12-03T07:09:09.794Z,83.12
2018-12-03T07:11:40.816Z,83.08
2018-12-03T07:14:10.949Z,82.65
2018-12-03T07:16:40.809Z,81.47
2018-12-03T07:19:11.038Z,82.09
2018-12-03T07:21:40.771Z,81.22
2018-12-03T07:24:10.342Z,80.86
2018-12-03T07:26:40.349Z,80.86
2018-12-03T07:29:10.064Z,80.14
2018-12-03T07:31:39.615Z,79.87
2018-12-03T07:34:09.513Z,79.34
2018-12-03T07:36:39.463Z,79.42
2018-12-03T07:39:09.903Z,79.02
2018-12-03T07:41:40.304Z,78.83
2018-12-03T07:44:10.260Z,79.20
2018-12-03T07:46:39.947Z,78.20
2018-12-03T07:49:09.976Z,78.10
2018-12-03T07:51:39.595Z,77.75
2018-12-03T07:54:09.213Z,78.63
2018-12-03T07:56:39.059Z,78.48
2018-12-03T07:59:08.607Z,77.58
2018-12-03T08:01:38.416Z,78.02
2018-12-03T08:04:08.465Z,78.15
2018-12-03T08:06:38.515Z,77.83
2018-12-03T08:09:10.002Z,77.90
2018-12-03T08:11:39.844Z,77.82
2018-12-03T08:14:10.349Z,77.31
2018-12-03T08:16:39.900Z,77.12
2018-12-03T08:19:11.054Z,76.54
2018-12-03T08:21:40.590Z,76.70
2018-12-03T08:24:14.581Z,76.87
2018-12-03T08:26:44.427Z,76.37
2018-12-03T08:29:14.250Z,76.83
2018-12-03T08:31:43.861Z,76.86
2018-12-03T08:34:13.791Z,75.92
2018-12-03T08:36:43.300Z,75.33
2018-12-03T08:39:13.337Z,75.49
2018-12-03T08:41:43.295Z,75.10
2018-12-03T08:44:13.552Z,74.52
2018-12-03T08:46:42.699Z,74.83
2018-12-03T08:49:13.315Z,74.85
2018-12-03T08:51:42.875Z,74.78
2018-12-03T08:54:12.580Z,74.98
2018-12-03T08:56:46.603Z,74.54
2018-12-03T08:59:16.133Z,74.39
2018-12-03T09:01:45.755Z,74.55
2018-12-03T09:04:18.074Z,74.94
2018-12-03T09:06:47.681Z,74.08
2018-12-03T09:09:19.322Z,74.24
2018-12-03T09:11:51.000Z,73.83
2018-12-03T09:14:26.038Z,73.26
2018-12-03T09:16:56.342Z,73.57
2018-12-03T09:19:26.113Z,73.82
2018-12-03T09:21:56.180Z,73.89
2018-12-03T09:24:26.529Z,73.71
2018-12-03T09:26:56.083Z,74.16
2018-12-03T09:29:25.593Z,73.87
2018-12-03T09:31:55.623Z,73.25
2018-12-03T09:34:26.041Z,73.82
2018-12-03T09:36:55.715Z,73.56
2018-12-03T09:39:25.610Z,72.98
2018-12-03T09:41:55.704Z,73.19
2018-12-03T09:44:26.854Z,73.14
2018-12-03T09:46:57.119Z,72.49
2018-12-03T09:49:26.650Z,73.29
2018-12-03T09:51:57.596Z,72.91
2018-12-03T09:54:27.543Z,73.84
2018-12-03T09:56:57.458Z,73.04
2018-12-03T09:59:27.317Z,73.09
2018-12-03T10:01:59.458Z,71.89
2018-12-03T10:04:32.980Z,71.76
2018-12-03T10:07:03.239Z,72.58
2018-12-03T10:09:39.061Z,73.17
2018-12-03T10:12:10.185Z,72.83
2018-12-03T10:14:40.006Z,72.47
2018-12-03T10:17:10.903Z,72.34
2018-12-03T10:19:40.928Z,72.26
2018-12-03T10:22:11.297Z,72.48
2018-12-03T10:24:41.454Z,72.70
2018-12-03T10:27:14.965Z,72.64
2018-12-03T10:29:45.134Z,74.10
2018-12-03T10:32:19.332Z,73.87
2018-12-03T10:34:49.918Z,74.73
2018-12-03T10:37:21.588Z,74.42
2018-12-03T10:39:52.058Z,74.31
2018-12-03T10:42:22.201Z,73.43
2018-12-03T10:44:52.367Z,72.56
2018-12-03T10:47:22.860Z,72.70
2018-12-03T10:49:53.497Z,71.40
2018-12-03T10:52:24.347Z,71.54
2018-12-03T10:54:54.548Z,71.67
2018-12-03T10:57:25.057Z,71.53
2018-12-03T10:59:56.353Z,71.12
2018-12-03T11:02:37.881Z,71.02
2018-12-03T11:05:14.374Z,71.14
2018-12-03T11:07:44.214Z,70.83
2018-12-03T11:10:15.114Z,70.90
2018-12-03T11:13:28.650Z,70.20
2018-12-03T11:15:58.645Z,70.83
2018-12-03T11:18:28.896Z,70.22
2018-12-03T11:21:04.164Z,70.46
2018-12-03T11:23:34.607Z,70.67
2018-12-03T11:26:04.714Z,69.87
2018-12-03T11:28:45.553Z,69.88
2018-12-03T11:31:22.913Z,71.22
2018-12-03T11:33:53.703Z,71.31
2018-12-03T11:36:25.755Z,71.94
2018-12-03T11:39:09.715Z,71.77
2018-12-03T11:41:39.836Z,71.94
2018-12-03T11:44:09.814Z,72.50
2018-12-03T11:46:39.274Z,72.96
2018-12-03T11:49:09.188Z,73.81
2018-12-03T11:51:39.440Z,73.51
2018-12-03T11:54:09.369Z,73.71
2018-12-03T11:56:38.768Z,74.72
2018-12-03T11:59:09.583Z,73.95
2018-12-03T12:01:39.081Z,74.38
2018-12-03T12:04:08.925Z,73.78
2018-12-03T12:06:38.471Z,73.60
2018-12-03T12:09:11.244Z,73.51
2018-12-03T12:11:41.785Z,72.67
2018-12-03T12:14:47.982Z,71.98
2018-12-03T12:17:17.638Z,71.14
2018-12-03T12:19:47.915Z,71.09
2018-12-03T12:22:17.584Z,70.67
2018-12-03T12:24:47.492Z,70.36
2018-12-03T12:27:18.756Z,71.19
2018-12-03T12:29:48.169Z,70.46
2018-12-03T12:32:18.140Z,70.51
2018-12-03T12:34:48.331Z,69.61
2018-12-03T12:37:19.040Z,70.11
2018-12-03T12:39:48.483Z,70.03
2018-12-03T12:42:18.194Z,69.12
2018-12-03T12:44:50.124Z,69.07
2018-12-03T12:47:19.870Z,69.03
2018-12-03T12:49:49.664Z,69.59
2018-12-03T12:52:19.498Z,68.88
2018-12-03T12:54:48.935Z,68.71
2018-12-03T12:57:18.589Z,68.96
2018-12-03T12:59:48.580Z,68.58
2018-12-03T13:02:18.443Z,69.03
2018-12-03T13:04:47.894Z,69.46
2018-12-03T13:07:17.609Z,68.74
2018-12-03T13:09:47.342Z,68.64
2018-12-03T13:12:16.806Z,69.21
2018-12-03T13:14:46.590Z,69.18
2018-12-03T13:17:16.157Z,68.84
2018-12-03T13:19:45.860Z,69.06
2018-12-03T13:22:15.558Z,68.93
2018-12-03T13:24:45.290Z,68.67
2018-12-03T13:27:14.849Z,68.90
2018-12-03T13:29:44.931Z,68.38
2018-12-03T13:32:14.555Z,68.87
2018-12-03T13:34:44.097Z,68.82
2018-12-03T13:37:14.254Z,68.98
2018-12-03T13:39:43.755Z,69.15
2018-12-03T13:42:13.216Z,69.71
2018-12-03T13:44:44.181Z,69.47
2018-12-03T13:47:13.856Z,69.83
2018-12-03T13:49:43.407Z,69.27
2018-12-03T13:52:12.905Z,69.69
2018-12-03T13:54:42.375Z,70.08
2018-12-03T13:57:11.924Z,69.58
2018-12-03T13:59:42.225Z,69.62
2018-12-03T14:02:11.867Z,69.09
2018-12-03T14:04:41.846Z,69.48
2018-12-03T14:07:21.960Z,69.52
2018-12-03T14:14:11.371Z,69.38
2018-12-03T14:17:19.659Z,71.27
2018-12-03T14:19:54.548Z,71.39
2018-12-03T14:22:31.397Z,71.38
2018-12-03T14:25:01.438Z,71.18
2018-12-03T14:27:31.020Z,71.62
2018-12-03T14:30:00.527Z,70.96
2018-12-03T14:32:30.048Z,71.25
2018-12-03T14:35:00.117Z,71.49
2018-12-03T14:37:29.686Z,71.34
2018-12-03T14:39:59.159Z,71.26
2018-12-03T14:42:28.740Z,70.65
2018-12-03T14:44:58.915Z,70.61
2018-12-03T14:47:29.394Z,71.05
2018-12-03T14:49:59.140Z,71.69
2018-12-03T14:52:28.649Z,71.70
2018-12-03T14:54:58.397Z,71.70
2018-12-03T14:57:28.414Z,71.33
2018-12-03T14:59:58.720Z,71.83
2018-12-03T15:02:28.371Z,72.50
2018-12-03T15:05:02.427Z,72.19
2018-12-03T15:07:32.123Z,72.43
2018-12-03T15:10:02.141Z,73.17
2018-12-03T15:12:31.988Z,73.52
2018-12-03T15:15:02.542Z,72.78
2018-12-03T15:17:32.404Z,72.64
2018-12-03T15:20:02.168Z,72.67
2018-12-03T15:22:32.335Z,72.94
2018-12-03T15:25:03.851Z,72.75
2018-12-03T15:27:33.413Z,72.64
2018-12-03T15:30:03.757Z,73.02
2018-12-03T15:32:33.259Z,72.76
2018-12-03T15:35:02.977Z,72.54
2018-12-03T15:37:32.713Z,72.83
2018-12-03T15:40:04.673Z,72.49
2018-12-03T15:42:34.467Z,73.02
2018-12-03T15:45:05.129Z,73.35
2018-12-03T15:47:35.371Z,73.26
2018-12-03T15:50:06.816Z,73.16
2018-12-03T15:55:05.351Z,73.08
2018-12-03T15:57:37.097Z,72.84
2018-12-03T16:00:11.917Z,72.62
2018-12-03T16:02:41.917Z,73.03
2018-12-03T16:05:21.568Z,73.56
2018-12-03T16:07:51.115Z,73.77
2018-12-03T16:10:20.679Z,73.15
2018-12-03T16:12:50.919Z,73.92
2018-12-03T16:15:20.699Z,73.61
2018-12-03T16:20:19.437Z,74.13
2018-12-03T16:22:48.939Z,73.43
2018-12-03T16:25:18.834Z,73.29
2018-12-03T16:27:48.957Z,73.32
2018-12-03T16:30:23.082Z,73.79
2018-12-03T16:32:52.914Z,72.73
2018-12-03T16:35:23.017Z,72.60
2018-12-03T16:37:52.993Z,72.91
2018-12-03T16:40:22.618Z,72.37
2018-12-03T16:42:53.067Z,72.40
2018-12-03T16:45:22.880Z,72.39
2018-12-03T16:47:54.589Z,72.55
2018-12-03T16:50:26.450Z,72.10
2018-12-03T16:52:56.747Z,72.23
2018-12-03T16:55:27.035Z,72.94
2018-12-03T16:57:57.136Z,73.02
2018-12-03T17:00:27.742Z,72.85
2018-12-03T17:02:57.888Z,73.01
2018-12-03T17:05:27.989Z,72.34
2018-12-03T17:07:58.304Z,72.08
2018-12-03T17:10:28.740Z,72.48
2018-12-03T17:12:59.448Z,72.09
2018-12-03T17:15:31.656Z,72.37
2018-12-03T17:18:01.982Z,72.32
2018-12-03T17:20:58.969Z,72.47
2018-12-03T17:23:38.050Z,72.87
2018-12-03T17:26:09.534Z,73.00
2018-12-03T17:28:39.468Z,72.64
2018-12-03T17:31:11.660Z,72.56
2018-12-03T17:33:42.227Z,72.83
2018-12-03T17:36:12.999Z,73.00
2018-12-03T17:38:43.089Z,73.25
2018-12-03T17:41:13.571Z,74.05
2018-12-03T17:43:43.434Z,74.62
2018-12-03T17:46:13.892Z,74.77
2018-12-03T17:48:44.658Z,75.45
2018-12-03T17:51:15.120Z,75.33
2018-12-03T17:53:45.606Z,75.76
2018-12-03T17:56:16.685Z,75.87
2018-12-03T17:58:47.425Z,75.89
2018-12-03T18:01:17.623Z,75.98
2018-12-03T18:03:47.633Z,76.08
2018-12-03T18:06:18.204Z,76.46
2018-12-03T18:08:48.475Z,76.15
2018-12-03T18:11:18.780Z,76.09
2018-12-03T18:13:48.560Z,75.76
2018-12-03T18:16:18.639Z,75.08
2018-12-03T18:18:48.215Z,76.51
2018-12-03T18:21:19.276Z,76.15
2018-12-03T18:23:48.830Z,76.25
2018-12-03T18:26:19.066Z,75.84
2018-12-03T18:28:48.537Z,75.79
2018-12-03T18:31:18.218Z,75.35
2018-12-03T18:33:48.027Z,75.13
2018-12-03T18:36:18.121Z,75.32
2018-12-03T18:38:47.823Z,74.89
2018-12-03T18:41:18.101Z,74.97
2018-12-03T18:43:47.673Z,74.26
2018-12-03T18:46:17.192Z,75.11
2018-12-03T18:48:48.659Z,74.67
2018-12-03T18:51:18.495Z,74.25
2018-12-03T18:53:48.216Z,74.65
2018-12-03T18:56:19.292Z,74.53
2018-12-03T18:59:04.881Z,75.12
2018-12-03T19:01:35.793Z,74.83
2018-12-03T19:04:05.795Z,74.36
2018-12-03T19:06:36.164Z,74.61
2018-12-03T19:09:08.548Z,74.43
2018-12-03T19:11:40.082Z,74.67
2018-12-03T19:14:09.782Z,74.61
2018-12-03T19:16:39.577Z,74.38
2018-12-03T19:19:10.777Z,74.28
2018-12-03T19:21:40.847Z,74.45
2018-12-03T19:24:11.394Z,74.06
2018-12-03T19:26:41.730Z,74.04
2018-12-03T19:29:12.986Z,74.73
2018-12-03T19:31:42.744Z,74.57
2018-12-03T19:34:12.519Z,74.51
2018-12-03T19:36:43.584Z,74.64
2018-12-03T19:39:20.046Z,75.02
2018-12-03T19:41:50.062Z,75.35
2018-12-03T19:44:20.585Z,75.65
2018-12-03T19:46:58.712Z,75.38
2018-12-03T19:49:32.587Z,76.19
2018-12-03T19:52:05.052Z,75.66
2018-12-03T19:54:41.137Z,75.86
2018-12-03T19:57:13.068Z,75.71
2018-12-03T19:59:49.018Z,75.76
2018-12-03T20:02:18.981Z,75.36
2018-12-03T20:04:53.439Z,75.14
2018-12-03T20:07:24.453Z,76.15
2018-12-03T20:09:58.710Z,76.09
2018-12-03T20:12:28.518Z,76.15
2018-12-03T20:14:58.241Z,76.27
2018-12-03T20:17:32.019Z,76.47
2018-12-03T20:20:02.287Z,75.77
2018-12-03T20:22:38.816Z,75.27
2018-12-03T20:25:10.415Z,75.54
2018-12-03T20:27:47.141Z,75.55
2018-12-03T20:30:30.634Z,76.38
2018-12-03T20:33:06.565Z,75.83
2018-12-03T20:36:48.905Z,76.20
2018-12-03T20:39:27.465Z,75.83
2018-12-03T20:42:01.799Z,76.07
2018-12-03T20:44:36.768Z,76.24
2018-12-03T20:47:14.019Z,76.06
2018-12-03T20:50:26.501Z,76.16
2018-12-03T20:52:56.447Z,76.15
2018-12-03T20:55:35.818Z,76.19
2018-12-03T20:58:05.458Z,76.41
2018-12-03T21:00:35.282Z,76.34
2018-12-03T21:03:05.444Z,76.47
2018-12-03T21:05:36.512Z,75.83
2018-12-03T21:08:06.985Z,76.44
2018-12-03T21:10:36.794Z,75.99
2018-12-03T21:13:07.251Z,75.91
2018-12-03T21:15:37.170Z,75.89
2018-12-03T21:18:06.774Z,75.68
2018-12-03T21:20:45.387Z,75.41
2018-12-03T21:23:15.307Z,75.45
2018-12-03T21:25:44.922Z,75.69
2018-12-03T21:28:14.583Z,75.76
2018-12-03T21:30:44.743Z,75.25
2018-12-03T21:33:14.263Z,75.03
2018-12-03T21:35:45.306Z,75.03
2018-12-03T21:38:15.584Z,75.60
2018-12-03T21:40:45.430Z,75.00
2018-12-03T21:43:15.591Z,74.54
2018-12-03T21:45:45.899Z,74.27
2018-12-03T21:48:16.526Z,74.21
2018-12-03T21:50:46.574Z,74.66
2018-12-03T21:53:17.087Z,74.20
2018-12-03T21:55:46.766Z,74.77
2018-12-03T21:58:16.942Z,74.12
2018-12-03T22:00:47.125Z,74.07
2018-12-03T22:03:17.212Z,74.16
2018-12-03T22:05:47.247Z,73.68
2018-12-03T22:08:17.713Z,73.40
2018-12-03T22:10:48.012Z,74.17
2018-12-03T22:13:18.137Z,74.40
2018-12-03T22:15:48.127Z,73.66
2018-12-03T22:18:19.070Z,73.94
2018-12-03T22:20:49.679Z,74.12
2018-12-03T22:23:20.107Z,74.60
2018-12-03T22:25:50.267Z,74.51
2018-12-03T22:28:20.879Z,74.56
2018-12-03T22:30:50.937Z,75.36
2018-12-03T22:33:20.875Z,75.60
2018-12-03T22:35:51.962Z,76.07
2018-12-03T22:38:21.922Z,76.37
2018-12-03T22:40:52.209Z,76.13
2018-12-03T22:43:22.574Z,76.50
2018-12-03T22:45:52.483Z,77.04
2018-12-03T22:48:23.787Z,76.14
2018-12-03T22:50:54.882Z,76.58
2018-12-03T22:53:25.162Z,76.39
2018-12-03T22:55:55.841Z,75.79
2018-12-03T22:58:27.715Z,75.96
2018-12-03T23:01:00.154Z,76.77
2018-12-03T23:03:30.257Z,77.30
2018-12-03T23:06:01.229Z,78.03
2018-12-03T23:08:31.210Z,79.02
2018-12-03T23:11:01.428Z,79.36
2018-12-03T23:13:32.405Z,79.56
2018-12-03T23:16:03.631Z,79.79
2018-12-03T23:18:34.520Z,80.15
2018-12-03T23:21:05.293Z,80.13
2018-12-03T23:23:36.483Z,79.84
2018-12-03T23:26:06.999Z,79.64
2018-12-03T23:28:37.380Z,79.93
2018-12-03T23:31:07.837Z,80.02
2018-12-03T23:33:38.341Z,79.75
2018-12-03T23:36:08.283Z,79.22
2018-12-03T23:38:38.401Z,79.61
2018-12-03T23:41:09.026Z,79.39
2018-12-03T23:43:39.847Z,78.74
2018-12-03T23:46:10.614Z,78.88
2018-12-03T23:48:41.207Z,79.42
2018-12-03T23:51:11.467Z,79.18
2018-12-03T23:53:41.433Z,79.17
2018-12-03T23:56:12.683Z,79.54
2018-12-03T23:58:43.262Z,79.24
